Share

Thedford, NE (69166)

Thedford (KTIF) Elev 2927 ft | 41.96 °N, 100.57 °W | Change Station

Current weather conditions updated 25 minutes ago

Scattered Clouds
Scattered Clouds
65 °F
Feels Like 65 °F
N
16
Wind Variable Wind from North
Gusts 24 mph
Sunrise 6:54 AM
Sunset 8:29 PM
Moon Waning Gibbous

Tomorrow is forecast to be Much Cooler than today.

Pressure 29.99 in
Visibility 10.0 miles
Clouds Scattered Clouds 11000 ft
Dew Point 38 °F
Humidity 37%
Rainfall 0.00 in
Snow Depth Not available.
UV 0 out of 16
Pollen 9.90 out of 12
Air Quality Not available.
Flu Activity Sporadic
METAR KTIF 210415Z AUTO 35014G21KT 10SM VCTS SCT110 19/04 A2999 RMK AO2 T01850035

More Conditions Fewer Conditions

Pressure 29.99 in
Visibility 10.0 miles
Clouds Scattered Clouds 11000 ft
Dew Point 38 °F
Humidity 37%
Rainfall 0.00 in
Snow Depth Not available.
UV 0 out of 16
Pollen 9.90 out of 12
Air Quality Not available.
Flu Activity Sporadic
METAR KTIF 210415Z AUTO 35014G21KT 10SM VCTS SCT110 19/04 A2999 RMK AO2 T01850035

More Conditions Fewer Conditions

10-Day Weather Forecast

Almanac

Astronomy

Apr. 20, 2014 Rise Set
Actual Time 6:54 AM CDT 8:29 PM CDT
Civil Twilight 6:24 AM CDT 8:58 PM CDT
Nautical Twilight 5:49 AM CDT 9:34 PM CDT
Astronomical Twilight 5:11 AM CDT 10:12 PM CDT
Moon 1:12 AM CDT (4/20) 11:14 AM CDT (4/20)
Length of Visible Light 14h 33m
Length of Day
13h 35m
Tomorrow will be 2m 37s longer.
Waning Gibbous, 63% of the Moon is Illuminated
Apr 21
Waning Gibbous
Apr 22
Last Quarter
Apr 29
New
May 6
First Quarter
May 14
Full

Yesterday's Extremes

State Highs State Lows

Community

  • Snowy Robin
    Snowy Robin
  • Sun Pillar and Geese
    Sun Pillar and Geese
  • Showers on the Way
    Showers on the Way
  • Easter Morning Fog
    Easter Morning Fog
  • Easter Dance
    Easter Dance

WunderPhotos

Upload Photos

1,703,559 photos uploaded!

WunderBlogs® & News

Nearby

Snow Depth

Station Depth Elevation
No new snow has been reported.

Coastal Water Temperatures

Place Temperature
No Stations Reporting

Earthquake Activity

City Distance Mag. Time & Date
No recent earthquake activity has been reported nearby.
Minimum magnitude displayed is 2.5.

Nearby Weather Stations

Station Location Temp. Dew Point Humidity Wind Precip. Elev Updated Type
RAWS BESSEY NE, Halsey, NE 65 °F 46 °F 51% SSW  at  4 mph 0.00 in / hr 2873 ft 10:23 PM CDT MADIS

Show More Stations Show Fewer Stations

What do you think?

We're not finished. Please let us know what you like, what you don't like, and what you are still missing.